• Join FlightAware (Why Join?)
  • Login
  • US Flag 
05:42PM EST


 

Airport Tracker/Info


-or-


 

Live Flight TrackerFlight Track Log ✈ AFL150 ✈ 23-Mar-2014 ✈ UUEE / SVO - MUHA / HAV

Flight Track Log - Related Links

Times and Time Zones

All times are in EDT time to prevent confusion due to time zone crossing. See the AFL150 flight status page for this flight to view local times or setup timezone preferences in your user account.

Time Position Orientation Groundspeed Altitude Reporting Facility
EDT Latitude Longitude Course Direction KTS MPH feet Rate Location/Type
05:49AM 56.0833 37.4003 307° West  Level Estimated
05:50AM 56.1515 37.2364 307° West  Level Estimated
05:51AM 56.2195 37.0718 307° West  Level Estimated
05:52AM 56.2873 36.9067 307° West  Level Estimated
05:53AM 56.3549 36.7410 306° West  Level Estimated
05:54AM 56.4222 36.5746 306° West  Level Estimated
05:55AM 56.4894 36.4077 306° West  Level Estimated
05:56AM 56.5563 36.2402 306° West  Level Estimated
05:57AM 56.6230 36.0722 306° West  Level Estimated
05:58AM 56.6894 35.9035 306° West  Level Estimated
05:59AM 56.7556 35.7342 306° West  Level Estimated
06:00AM 56.8216 35.5643 305° West  Level Estimated
06:01AM 56.8874 35.3939 305° West  Level Estimated
06:02AM 56.9529 35.2228 305° West  Level Estimated
06:03AM 57.0182 35.0511 305° West  Level Estimated
06:04AM 57.0833 34.8788 305° West  Level Estimated
06:05AM 57.1473 34.7082 305° West  Level Estimated
06:06AM 57.2110 34.5370 305° West  Level Estimated
06:07AM 57.2745 34.3652 304° West  Level Estimated
06:08AM 57.3378 34.1928 304° West  Level Estimated
06:09AM 57.4008 34.0198 304° West  Level Estimated
06:10AM 57.4636 33.8463 304° West  Level Estimated
06:11AM 57.5262 33.6721 304° West  Level Estimated
06:12AM 57.5885 33.4973 304° West  Level Estimated
06:13AM 57.6506 33.3219 304° West  Level Estimated
06:14AM 57.7124 33.1460 303° West  Level Estimated
06:15AM 57.7740 32.9694 303° West  Level Estimated
06:16AM 57.8354 32.7922 303° West  Level Estimated
06:17AM 57.8965 32.6144 303° West  Level Estimated
06:18AM 57.9573 32.4361 303° West  Level Estimated
06:19AM 58.0179 32.2571 303° West  Level Estimated
06:20AM 58.0783 32.0775 302° West  Level Estimated
06:21AM 58.1384 31.8973 302° West  Level Estimated
06:22AM 58.1982 31.7165 302° West  Level Estimated
06:22AM 56.5412 31.2673 283° West 434 499 34,000  Level FlightAware ADS-B
06:22AM 56.5623 31.1420 292° West 436 502 34,000  Level FlightAware ADS-B (EVDA / DGP)
06:23AM 56.6202 30.9349 302° West 440 506 34,000  Level FlightAware ADS-B (EVDA / DGP)
06:24AM 56.6993 30.7568 311° West 444 511 34,000  Level FlightAware ADS-B (EVDA / DGP)
06:25AM 56.7678 30.5838 305° West 440 506 34,000  Level FlightAware ADS-B (EVDA / DGP)
06:26AM 56.8176 30.4525 304° West 437 503 34,000  Level FlightAware ADS-B
06:27AM 56.8861 30.2676 304° West 434 499 34,000  Level FlightAware ADS-B
06:28AM 56.9279 30.1537 304° West 433 498 34,000  Level FlightAware ADS-B (EVDA / DGP)
06:28AM 56.9613 30.0621 304° West 434 499 34,000  Level FlightAware ADS-B
06:29AM 57.0046 29.9430 304° West 436 502 34,000  Level FlightAware ADS-B (EVDA / DGP)
06:30AM 57.0756 29.7463 304° West 435 501 34,000  Level FlightAware ADS-B (EVDA / DGP)
06:31AM 57.1419 29.5616 303° West 436 502 34,000  Level FlightAware ADS-B (EVDA / DGP)
06:32AM 57.2086 29.3743 303° West 438 504 34,000  Level FlightAware ADS-B (EVDA / DGP)
06:33AM 57.2764 29.1826 303° West 438 504 34,000  Level FlightAware ADS-B (EVDA / DGP)
06:34AM 57.3445 28.9877 303° West 439 505 34,000  Level FlightAware ADS-B (EVDA / DGP)
06:35AM 57.4106 28.7983 303° West 439 505 34,000  Level FlightAware ADS-B (EVDA / DGP)
06:36AM 57.4547 28.6705 303° West 437 503 34,000  Level FlightAware ADS-B
06:37AM 57.5186 28.4847 302° West 437 503 34,000  Level FlightAware ADS-B
06:38AM 57.5800 28.3044 302° West 436 502 34,000  Level FlightAware ADS-B
06:39AM 57.6464 28.1082 302° West 437 503 34,000  Level FlightAware ADS-B
06:40AM 57.7243 27.8757 302° West 435 501 34,000  Level FlightAware ADS-B
06:41AM 57.8038 27.6362 302° West 436 502 34,000  Level FlightAware ADS-B
06:42AM 57.8554 27.4395 290° West 425 489 34,000  Level FlightAware ADS-B
06:43AM 57.8788 27.3226 291° West 425 489 34,000  Level FlightAware ADS-B (EVDA / DGP)
06:44AM 57.9199 27.1185 291° West 428 493 34,000  Level FlightAware ADS-B (EVDA / DGP)
06:44AM 57.9473 26.9821 291° West 429 494 34,000  Level FlightAware ADS-B
06:46AM 57.9988 26.7223 290° West 431 496 34,000  Level FlightAware ADS-B
06:47AM 58.0425 26.5000 290° West 430 495 34,000  Level FlightAware ADS-B
06:48AM 58.0833 26.2900 290° West 430 495 34,000  Level FlightAware ADS-B
06:49AM 58.1239 26.0775 290° West 432 497 34,000  Level FlightAware ADS-B
06:50AM 58.1672 25.8495 290° West 430 495 34,000  Level FlightAware ADS-B
06:51AM 58.2091 25.6259 290° West 431 496 34,000  Level FlightAware ADS-B
06:52AM 58.2488 25.4121 289° West 431 496 34,000  Level FlightAware ADS-B
06:53AM 58.2872 25.2024 289° West 429 494 34,000  Level FlightAware ADS-B
06:54AM 58.3362 24.9314 289° West 428 493 34,000  Level FlightAware ADS-B
06:55AM 58.3648 24.7712 289° West 430 495 34,000  Level FlightAware ADS-B
06:56AM 58.4117 24.5063 289° West 431 496 34,000  Level FlightAware ADS-B
06:59AM 58.4619 24.1820 286° West 424 488 34,000  Level FlightAware ADS-B
07:00AM 58.5385 23.6672 286° West 424 488 34,000  Level FlightAware ADS-B (EVDA / DGP)
07:08AM 58.7363 22.2578 284° West 410 472 34,000  Level FlightAware ADS-B (ESKB)
07:09AM 58.8178 21.6357 284° West 406 467 34,000  Level FlightAware ADS-B (ESKB)
07:10AM 58.8349 21.5027 284° West 405 466 34,000  Level FlightAware ADS-B (ESKB)
07:11AM 58.8522 21.3668 284° West 404 465 34,000  Level FlightAware ADS-B (ESKB)
07:11AM 58.8735 21.2186 289° West 413 475 34,000  Level FlightAware ADS-B (ESKB)
07:12AM 58.8970 21.0880 289° West 415 478 34,000  Level FlightAware ADS-B (ESKB)
07:13AM 58.9217 20.9427 288° West 415 478 34,000  Level FlightAware ADS-B (ESKB)
07:13AM 58.9440 20.8081 288° West 416 479 34,000  Level FlightAware ADS-B (ESKB)
07:14AM 58.9666 20.6700 288° West 416 479 34,000  Level FlightAware ADS-B (ESKB)
07:15AM 58.9914 20.5167 287° West 418 481 34,000  Level FlightAware ADS-B (ESKB)
07:15AM 59.0143 20.3751 287° West 418 481 34,000  Level FlightAware ADS-B (ESKB)
07:16AM 59.0379 20.2275 287° West 418 481 34,000  Level FlightAware ADS-B (ESKB)
07:17AM 59.0601 20.0873 287° West 418 481 34,000  Level FlightAware ADS-B (ESKB)
07:17AM 59.0831 19.9405 287° West 418 481 34,000  Level FlightAware ADS-B (ESKB)
07:18AM 59.1064 19.7910 287° West 419 482 34,000  Level FlightAware ADS-B (ESKB)
07:19AM 59.1289 19.6466 287° West 421 484 34,000  Level FlightAware ADS-B (ESKB)
07:19AM 59.1505 19.5049 287° West 427 491 34,000  Level FlightAware ADS-B (ESKB)
07:20AM 59.1726 19.3590 286° West 428 493 34,000  Level FlightAware ADS-B (ESKB)
07:21AM 59.1959 19.2044 286° West 426 490 34,000  Level FlightAware ADS-B (ESKB)
07:21AM 59.2166 19.0656 286° West 426 490 34,000  Level FlightAware ADS-B (ESKB)
07:22AM 59.2395 18.9100 286° West 426 490 34,000  Level FlightAware ADS-B (ESKB)
07:23AM 59.2598 18.7713 286° West 428 493 34,000  Level FlightAware ADS-B (ESKB)
07:23AM 59.2826 18.6150 286° West 427 491 34,000  Level FlightAware ADS-B (ESKB)
07:24AM 59.3034 18.4708 286° West 430 495 34,000  Level FlightAware ADS-B (ESKB)
07:25AM 59.3250 18.3190 286° West 433 498 34,000  Level FlightAware ADS-B (ESKB)
07:25AM 59.3443 18.1830 285° West 435 501 34,000  Level FlightAware ADS-B (ESKB)
07:26AM 59.3673 18.0181 285° West 435 501 34,000  Level FlightAware ADS-B (ESKB)
07:27AM 59.3906 17.8497 285° West 435 501 34,000  Level FlightAware ADS-B (ESKB)
07:27AM 59.4124 17.6901 285° West 434 499 34,000  Level FlightAware ADS-B (ESKB)
07:28AM 59.4309 17.5542 285° West 434 499 34,000  Level FlightAware ADS-B (ESKB)
07:29AM 59.4533 17.3878 285° West 432 497 34,000  Level FlightAware ADS-B (ESKB)
07:29AM 59.4722 17.2469 285° West 429 494 34,000  Level FlightAware ADS-B (ESKB)
07:30AM 59.4926 17.0913 285° West 429 494 34,000  Level FlightAware ADS-B (ESKB)
07:31AM 59.5129 16.9362 284° West 431 496 34,000  Level FlightAware ADS-B (ESKB)
07:31AM 59.5321 16.7867 284° West 431 496 34,000  Level FlightAware ADS-B (ESKB)
07:32AM 59.5518 16.6323 284° West 435 501 34,000  Level FlightAware ADS-B (ESKB)
07:33AM 59.5706 16.4838 284° West 437 503 34,000  Level FlightAware ADS-B (ESKB)
07:33AM 59.5802 16.4071 283° West 435 501 34,000  Level FlightAware ADS-B (KSAN)
07:34AM 59.5990 16.2564 284° West 440 506 34,000  Level FlightAware ADS-B (ESKB)
07:34AM 59.6169 16.1115 283° West 437 503 34,000  Level FlightAware ADS-B (KSAN)
07:35AM 59.6294 16.0093 283° West 437 503 34,000  Level FlightAware ADS-B (KSAN)
07:35AM 59.6445 15.8851 283° West 438 504 34,000  Level FlightAware ADS-B (KSAN)
07:36AM 59.6575 15.7780 283° West 437 503 34,000  Level FlightAware ADS-B (ESKB)
07:36AM 59.6732 15.6451 283° West 436 502 34,000  Level FlightAware ADS-B (KSAN)
07:37AM 59.6937 15.4724 283° West 437 503 34,000  Level FlightAware ADS-B (KSAN)
07:38AM 59.7140 15.2972 283° West 438 504 34,000  Level FlightAware ADS-B (KSAN)
07:39AM 59.7342 15.1219 283° West 438 504 34,000  Level FlightAware ADS-B (KSAN)
07:39AM 59.7537 14.9506 283° West 440 506 34,000  Level FlightAware ADS-B (KSAN)
07:40AM 59.7670 14.8319 283° West 440 506 34,000  Level FlightAware ADS-B (KSAN)
07:40AM 59.7804 14.7121 283° West 439 505 34,000  Level FlightAware ADS-B (KSAN)
07:41AM 59.7933 14.5949 281° West 438 504 34,000  Level FlightAware ADS-B (KSAN)
07:41AM 59.8063 14.4759 281° West 437 503 34,000  Level FlightAware ADS-B (KSAN)
07:42AM 59.8190 14.3591 281° West 439 505 34,000  Level FlightAware ADS-B (KSAN)
07:43AM 59.8386 14.1757 281° West 442 509 34,000  Level FlightAware ADS-B (KSAN)
07:43AM 59.8511 14.0575 281° West 444 511 34,000  Level FlightAware ADS-B (KSAN)
07:44AM 59.8640 13.9347 281° West 445 512 34,000  Level FlightAware ADS-B (KSAN)
07:44AM 59.8764 13.8163 281° West 442 509 34,000  Level FlightAware ADS-B (KSAN)
07:45AM 59.8893 13.6908 280° West 441 507 34,000  Level FlightAware ADS-B (KSAN)
07:45AM 59.9067 13.5197 280° West 441 507 34,000 180 Level FlightAware ADS-B (KSAN)
07:46AM 59.9271 13.3332 287° West 445 512 34,300 600 Climbing FlightAware ADS-B (KSAN)
07:47AM 59.9537 13.1597 287° West 444 511 35,000 840 Climbing FlightAware ADS-B (KSAN)
07:47AM 59.9715 13.0409 287° West 446 513 35,400 600 Climbing FlightAware ADS-B (KSAN)
07:48AM 59.9889 12.9246 287° West 450 518 35,600 360 Climbing FlightAware ADS-B (KSAN)
07:48AM 60.0067 12.8044 286° West 456 525 35,800 360 Climbing FlightAware ADS-B (KSAN)
07:49AM 60.0258 12.6745 286° West 458 527 36,000 180 Climbing FlightAware ADS-B (KSAN)
07:49AM 60.0434 12.5538 286° West 456 525 36,000  Level FlightAware ADS-B (KSAN)
07:50AM 60.0613 12.4302 285° West 453 521 36,000  Level FlightAware ADS-B (KSAN)
07:50AM 60.0792 12.3058 285° West 450 518 36,000  Level FlightAware ADS-B (KSAN)
07:51AM 60.0980 12.1731 285° West 449 517 36,000  Level FlightAware ADS-B (KSAN)
07:51AM 60.1149 12.0534 285° West 450 518 36,000  Level FlightAware ADS-B (KSAN)
07:52AM 60.1319 11.9324 285° West 450 518 36,000  Level FlightAware ADS-B (KSAN)
07:52AM 60.1494 11.8072 285° West 449 517 36,000  Level FlightAware ADS-B (KSAN)
07:53AM 60.1656 11.6896 284° West 449 517 36,000  Level FlightAware ADS-B (KSAN)
07:53AM 60.1824 11.5675 284° West 450 518 36,000  Level FlightAware ADS-B (KSAN)
07:56AM 60.2421 11.1188 285° West  Level Estimated
07:57AM 60.2707 10.8993 285° West  Level Estimated
07:58AM 60.2990 10.6795 285° West  Level Estimated
07:59AM 60.3269 10.4592 284° West  Level Estimated
08:00AM 60.3544 10.2386 284° West  Level Estimated
08:01AM 60.3815 10.0176 284° West  Level Estimated
08:02AM 60.4083 9.7963 284° West  Level Estimated
08:03AM 60.4347 9.5746 284° West  Level Estimated
08:04AM 60.4608 9.3525 283° West  Level Estimated
08:05AM 60.4864 9.1301 283° West  Level Estimated
08:06AM 60.5117 8.9073 283° West  Level Estimated
08:07AM 60.5367 8.6842 283° West  Level Estimated
08:08AM 60.5612 8.4608 283° West  Level Estimated
08:09AM 60.5854 8.2370 283° West  Level Estimated
08:10AM 60.6092 8.0128 282° West  Level Estimated
08:11AM 60.6327 7.7884 282° West  Level Estimated
08:12AM 60.6557 7.5636 282° West  Level Estimated
08:13AM 60.6784 7.3385 282° West  Level Estimated
08:14AM 60.7007 7.1131 282° West  Level Estimated
08:15AM 60.7227 6.8874 281° West  Level Estimated
08:16AM 60.7442 6.6613 281° West  Level Estimated
08:17AM 60.7654 6.4350 281° West  Level Estimated
08:18AM 60.7862 6.2084 281° West  Level Estimated
08:19AM 60.8065 5.9815 281° West  Level Estimated
08:20AM 60.8266 5.7543 280° West  Level Estimated
08:21AM 60.8462 5.5268 280° West  Level Estimated
08:22AM 60.8655 5.2990 280° West  Level Estimated
08:23AM 60.8843 5.0710 280° West  Level Estimated
08:24AM 60.9028 4.8427 280° West  Level Estimated
08:25AM 60.9209 4.6141 279° West  Level Estimated
08:26AM 60.9386 4.3853 279° West  Level Estimated
08:27AM 60.9559 4.1562 279° West  Level Estimated
08:28AM 60.9728 3.9269 279° West  Level Estimated
08:29AM 60.9894 3.6973 279° West  Level Estimated
08:30AM 61.0055 3.4675 278° West  Level Estimated
08:31AM 61.0213 3.2375 278° West  Level Estimated
08:32AM 61.0366 3.0073 278° West  Level Estimated
08:33AM 61.0516 2.7768 278° West  Level Estimated
08:34AM 61.0662 2.5461 278° West  Level Estimated
08:35AM 61.0804 2.3152 277° West  Level Estimated
08:36AM 61.0942 2.0841 277° West  Level Estimated
08:37AM 61.1076 1.8528 277° West  Level Estimated
08:38AM 61.1205 1.6213 277° West  Level Estimated
08:39AM 61.1332 1.3896 277° West  Level Estimated
08:40AM 61.1454 1.1577 276° West  Level Estimated
08:41AM 61.1572 0.9257 276° West  Level Estimated
08:42AM 61.1686 0.6935 276° West  Level Estimated
08:43AM 61.1796 0.4611 276° West  Level Estimated
08:44AM 61.1902 0.2286 276° West  Level Estimated
08:45AM 61.2004 -0.0041 275° West  Level Estimated
08:46AM 61.2103 -0.2370 275° West  Level Estimated
08:47AM 61.2197 -0.4699 275° West  Level Estimated
08:48AM 61.2287 -0.7031 275° West  Level Estimated
08:49AM 61.2373 -0.9363 274° West  Level Estimated
08:50AM 61.2455 -1.1697 274° West  Level Estimated
08:51AM 61.2533 -1.4032 274° West  Level Estimated
08:52AM 61.2608 -1.6368 274° West  Level Estimated
08:53AM 61.2678 -1.8705 274° West  Level Estimated
08:54AM 61.2744 -2.1043 273° West  Level Estimated
08:55AM 61.2806 -2.3382 273° West  Level Estimated
08:56AM 61.2864 -2.5722 273° West  Level Estimated
08:57AM 61.2918 -2.8063 273° West  Level Estimated
08:58AM 61.2968 -3.0405 273° West  Level Estimated
08:59AM 61.3014 -3.2747 272° West  Level Estimated
09:00AM 61.3056 -3.5090 272° West  Level Estimated
09:01AM 61.3094 -3.7434 272° West  Level Estimated
09:02AM 61.3128 -3.9778 272° West  Level Estimated
09:03AM 61.3158 -4.2122 272° West  Level Estimated
09:04AM 61.3183 -4.4467 271° West  Level Estimated
09:05AM 61.3205 -4.6813 271° West  Level Estimated
09:06AM 61.3223 -4.9158 271° West  Level Estimated
09:07AM 61.3237 -5.1504 271° West  Level Estimated
09:08AM 61.3246 -5.3850 271° West  Level Estimated
09:09AM 61.3252 -5.6196 270° West  Level Estimated
09:10AM 61.3253 -5.8543 270° West  Level Estimated
09:11AM 61.3251 -6.0889 270° West  Level Estimated
09:12AM 61.3244 -6.3235 270° West  Level Estimated
09:13AM 61.3234 -6.5581 270° West  Level Estimated
09:14AM 61.3219 -6.7927 269° West  Level Estimated
09:15AM 61.3200 -7.0272 269° West  Level Estimated
09:16AM 61.3177 -7.2618 269° West  Level Estimated
09:17AM 61.3151 -7.4963 269° West  Level Estimated
09:18AM 61.3120 -7.7307 269° West  Level Estimated
09:19AM 61.3085 -7.9651 268° West  Level Estimated
09:20AM 61.3046 -8.1994 268° West  Level Estimated
09:21AM 61.3003 -8.4337 268° West  Level Estimated
09:22AM 61.2956 -8.6679 268° West  Level Estimated
09:23AM 61.2905 -8.9021 268° West  Level Estimated
09:24AM 61.2850 -9.1362 267° West  Level Estimated
09:25AM 61.2791 -9.3701 267° West  Level Estimated
09:26AM 61.2728 -9.6040 267° West  Level Estimated
09:27AM 61.2661 -9.8378 267° West  Level Estimated
09:28AM 61.2590 -10.0715 266° West  Level Estimated
09:29AM 61.2515 -10.3051 266° West  Level Estimated
09:30AM 61.2436 -10.5385 266° West  Level Estimated
09:31AM 61.2352 -10.7719 266° West  Level Estimated
09:32AM 61.2265 -11.0051 266° West  Level Estimated
09:33AM 61.2174 -11.2382 265° West  Level Estimated
09:34AM 61.2079 -11.4711 265° West  Level Estimated
09:35AM 61.1980 -11.7039 265° West  Level Estimated
09:36AM 61.1877 -11.9366 265° West  Level Estimated
09:37AM 61.1769 -12.1691 265° West  Level Estimated
09:38AM 61.1658 -12.4014 264° West  Level Estimated
09:39AM 61.1543 -12.6336 264° West  Level Estimated
09:40AM 61.1424 -12.8656 264° West  Level Estimated
09:41AM 61.1301 -13.0974 264° West  Level Estimated
09:42AM 61.1174 -13.3291 264° West  Level Estimated
09:43AM 61.1043 -13.5605 263° West  Level Estimated
09:44AM 61.0908 -13.7917 263° West  Level Estimated
09:45AM 61.0769 -14.0228 263° West  Level Estimated
09:46AM 61.0626 -14.2536 263° West  Level Estimated
09:47AM 61.0480 -14.4843 263° West  Level Estimated
09:48AM 61.0329 -14.7147 262° West  Level Estimated
09:49AM 61.0174 -14.9449 262° West  Level Estimated
09:50AM 61.0016 -15.1749 262° West  Level Estimated
09:51AM 60.9854 -15.4046 262° West  Level Estimated
09:52AM 60.9687 -15.6341 262° West  Level Estimated
09:53AM 60.9517 -15.8634 261° West  Level Estimated
09:54AM 60.9343 -16.0924 261° West  Level Estimated
09:55AM 60.9165 -16.3212 261° West  Level Estimated
09:56AM 60.8983 -16.5497 261° West  Level Estimated
09:57AM 60.8797 -16.7779 261° West  Level Estimated
09:58AM 60.8608 -17.0059 260° West  Level Estimated
09:59AM 60.8414 -17.2336 260° West  Level Estimated
10:00AM 60.8217 -17.4610 260° West  Level Estimated
10:01AM 60.8016 -17.6881 260° West  Level Estimated
10:02AM 60.7811 -17.9150 260° West  Level Estimated
10:03AM 60.7602 -18.1415 259° West  Level Estimated
10:04AM 60.7390 -18.3678 259° West  Level Estimated
10:05AM 60.7173 -18.5937 259° West  Level Estimated
10:06AM 60.6953 -18.8194 259° West  Level Estimated
10:07AM 60.6729 -19.0447 259° West  Level Estimated
10:08AM 60.6501 -19.2697 258° West  Level Estimated
10:09AM 60.6270 -19.4944 258° West  Level Estimated
10:10AM 60.6035 -19.7188 258° West  Level Estimated
10:11AM 60.5795 -19.9429 258° West  Level Estimated
10:12AM 60.5553 -20.1666 258° West  Level Estimated
10:13AM 60.5306 -20.3899 257° West  Level Estimated
10:14AM 60.5056 -20.6130 257° West  Level Estimated
10:15AM 60.4802 -20.8357 257° West  Level Estimated
10:16AM 60.4544 -21.0580 257° West  Level Estimated
10:17AM 60.4283 -21.2800 257° West  Level Estimated
10:18AM 60.4018 -21.5016 256° West  Level Estimated
10:19AM 60.3749 -21.7229 256° West  Level Estimated
10:20AM 60.3477 -21.9437 256° West  Level Estimated
10:21AM 60.3201 -22.1643 256° West  Level Estimated
10:22AM 60.2921 -22.3844 256° West  Level Estimated
10:23AM 60.2638 -22.6042 256° West  Level Estimated
10:24AM 60.2351 -22.8235 255° West  Level Estimated
10:25AM 60.2060 -23.0425 255° West  Level Estimated
10:26AM 60.1766 -23.2612 255° West  Level Estimated
10:27AM 60.1468 -23.4794 255° West  Level Estimated
10:28AM 60.1167 -23.6972 255° West  Level Estimated
10:29AM 60.0862 -23.9146 254° West  Level Estimated
10:30AM 60.0554 -24.1316 254° West  Level Estimated
10:31AM 60.0242 -24.3482 254° West  Level Estimated
10:32AM 59.9926 -24.5644 254° West  Level Estimated
10:33AM 59.9607 -24.7802 254° West  Level Estimated
10:34AM 59.9284 -24.9955 253° West  Level Estimated
10:35AM 59.8958 -25.2105 253° West  Level Estimated
10:36AM 59.8629 -25.4250 253° West  Level Estimated
10:37AM 59.8296 -25.6391 253° West  Level Estimated
10:38AM 59.7959 -25.8527 253° West  Level Estimated
10:39AM 59.7619 -26.0660 253° West  Level Estimated
10:40AM 59.7276 -26.2787 252° West  Level Estimated
10:41AM 59.6929 -26.4911 252° West  Level Estimated
10:42AM 59.6578 -26.7030 252° West  Level Estimated
10:43AM 59.6225 -26.9145 252° West  Level Estimated
10:44AM 59.5868 -27.1255 252° West  Level Estimated
10:45AM 59.5507 -27.3361 251° West  Level Estimated
10:46AM 59.5143 -27.5462 251° West  Level Estimated
10:47AM 59.4776 -27.7558 251° West  Level Estimated
10:48AM 59.4406 -27.9650 251° West  Level Estimated
10:49AM 59.4032 -28.1738 251° West  Level Estimated
10:50AM 59.3654 -28.3820 251° West  Level Estimated
10:51AM 59.3274 -28.5899 250° West  Level Estimated
10:52AM 59.2890 -28.7972 250° West  Level Estimated
10:53AM 59.2503 -29.0041 250° West  Level Estimated
10:54AM 59.2112 -29.2105 250° West  Level Estimated
10:55AM 59.1719 -29.4164 250° West  Level Estimated
10:56AM 59.1322 -29.6219 249° West  Level Estimated
10:57AM 59.0922 -29.8269 249° West  Level Estimated
10:58AM 59.0518 -30.0314 249° West  Level Estimated
10:59AM 59.0112 -30.2354 249° West  Level Estimated
11:00AM 58.9702 -30.4389 249° West  Level Estimated
11:01AM 58.9289 -30.6420 249° West  Level Estimated
11:02AM 58.8873 -30.8446 248° West  Level Estimated
11:03AM 58.8453 -31.0466 248° West  Level Estimated
11:04AM 58.8031 -31.2482 248° West  Level Estimated
11:05AM 58.7605 -31.4493 248° West  Level Estimated
11:06AM 58.7177 -31.6499 248° West  Level Estimated
11:07AM 58.6745 -31.8500 248° West  Level Estimated
11:08AM 58.6310 -32.0496 247° West  Level Estimated
11:09AM 58.5872 -32.2487 247° West  Level Estimated
11:10AM 58.5431 -32.4473 247° West  Level Estimated
11:11AM 58.4987 -32.6455 247° West  Level Estimated
11:12AM 58.4540 -32.8431 247° West  Level Estimated
11:13AM 58.4089 -33.0402 247° West  Level Estimated
11:14AM 58.3636 -33.2368 246° West  Level Estimated
11:15AM 58.3180 -33.4329 246° West  Level Estimated
11:16AM 58.2721 -33.6284 246° West  Level Estimated
11:17AM 58.2258 -33.8235 246° West  Level Estimated
11:18AM 58.1785 -34.0215 246° West  Level Estimated
11:19AM 58.1309 -34.2189 246° West  Level Estimated
11:20AM 58.0830 -34.4157 245° Southwest  Level Estimated
11:21AM 58.0347 -34.6121 245° Southwest  Level Estimated
11:22AM 57.9862 -34.8079 245° Southwest  Level Estimated
11:23AM 57.9374 -35.0032 245° Southwest  Level Estimated
11:24AM 57.8882 -35.1979 245° Southwest  Level Estimated
11:25AM 57.8388 -35.3921 245° Southwest  Level Estimated
11:26AM 57.7891 -35.5858 244° Southwest  Level Estimated
11:27AM 57.7390 -35.7789 244° Southwest  Level Estimated
11:28AM 57.6887 -35.9715 244° Southwest  Level Estimated
11:29AM 57.6381 -36.1636 244° Southwest  Level Estimated
11:30AM 57.5872 -36.3552 244° Southwest  Level Estimated
11:31AM 57.5360 -36.5462 244° Southwest  Level Estimated
11:32AM 57.4846 -36.7366 243° Southwest  Level Estimated
11:33AM 57.4328 -36.9266 243° Southwest  Level Estimated
11:34AM 57.3807 -37.1160 243° Southwest  Level Estimated
11:35AM 57.3284 -37.3048 243° Southwest  Level Estimated
11:36AM 57.2758 -37.4931 243° Southwest  Level Estimated
11:37AM 57.2229 -37.6809 243° Southwest  Level Estimated
11:38AM 57.1697 -37.8681 242° Southwest  Level Estimated
11:39AM 57.1163 -38.0548 242° Southwest  Level Estimated
11:40AM 57.0626 -38.2410 242° Southwest  Level Estimated
11:41AM 57.0086 -38.4266 242° Southwest  Level Estimated
11:42AM 56.9543 -38.6117 242° Southwest  Level Estimated
11:43AM 56.8997 -38.7962 242° Southwest  Level Estimated
11:44AM 56.8449 -38.9802 241° Southwest  Level Estimated
11:45AM 56.7898 -39.1637 241° Southwest  Level Estimated
11:46AM 56.7345 -39.3466 241° Southwest  Level Estimated
11:47AM 56.6789 -39.5289 241° Southwest  Level Estimated
11:48AM 56.6230 -39.7108 241° Southwest  Level Estimated
11:49AM 56.5668 -39.8921 241° Southwest  Level Estimated
11:50AM 56.5104 -40.0728 241° Southwest  Level Estimated
11:51AM 56.4537 -40.2531 240° Southwest  Level Estimated
11:52AM 56.3968 -40.4328 240° Southwest  Level Estimated
11:53AM 56.3396 -40.6119 240° Southwest  Level Estimated
11:54AM 56.2821 -40.7905 240° Southwest  Level Estimated
11:55AM 56.2244 -40.9686 240° Southwest  Level Estimated
11:56AM 56.1665 -41.1461 240° Southwest  Level Estimated
11:57AM 56.1082 -41.3231 240° Southwest  Level Estimated
11:58AM 56.0498 -41.4996 239° Southwest  Level Estimated
11:59AM 55.9910 -41.6755 239° Southwest  Level Estimated
12:00PM 55.9321 -41.8509 239° Southwest  Level Estimated
12:01PM 55.8728 -42.0258 239° Southwest  Level Estimated
12:02PM 55.8134 -42.2001 239° Southwest  Level Estimated
12:03PM 55.7537 -42.3739 239° Southwest  Level Estimated
12:04PM 55.6937 -42.5471 239° Southwest  Level Estimated
12:05PM 55.6335 -42.7199 238° Southwest  Level Estimated
12:06PM 55.5731 -42.8921 238° Southwest  Level Estimated
12:07PM 55.5124 -43.0638 238° Southwest  Level Estimated
12:08PM 55.4515 -43.2349 238° Southwest  Level Estimated
12:08PM 63.1833 -54.7833 237° Southwest 230 265 36,000  Level Gander Center
12:09PM 55.3903 -43.4055 238° Southwest  Level Estimated
12:09PM 63.1333 -54.9833 241° Southwest 390 449 36,000  Level Gander Center
12:10PM 55.3289 -43.5756 238° Southwest  Level Estimated
12:10PM 63.0667 -55.3167 246° West 460 529 36,000  Level Gander Center
12:11PM 55.2673 -43.7451 238° Southwest  Level Estimated
12:11PM 63.0333 -55.5500 253° West 460 529 36,000  Level Gander Center
12:12PM 55.2054 -43.9142 237° Southwest  Level Estimated
12:12PM 62.9667 -55.8167 241° Southwest 460 529 36,000  Level Gander Center
12:13PM 55.1433 -44.0827 237° Southwest  Level Estimated
12:13PM 62.9333 -56.0833 255° West 460 529 36,000  Level Gander Center
12:15PM 62.8500 -56.4500 244° Southwest 450 518 36,000  Level Gander Center
12:16PM 62.7833 -56.7167 241° Southwest 460 529 36,000  Level Gander Center
12:16PM 62.7333 -56.8000 217° Southwest 260 299 36,000  Level Montreal Center
12:17PM 62.7000 -57.0500 254° West 460 529 36,000  Level Gander Center
12:18PM 62.6500 -57.3167 248° West 460 529 36,000  Level Gander Center
12:19PM 62.5833 -57.5000 232° Southwest 460 529 36,000  Level Gander Center
12:20PM 62.5167 -57.7667 242° Southwest 450 518 36,000  Level Gander Center
12:21PM 62.4500 -58.0167 240° Southwest 460 529 36,000  Level Gander Center
12:22PM 62.4000 -58.2500 245° Southwest 460 529 36,000  Level Gander Center
12:23PM 62.3167 -58.4667 230° Southwest 450 518 36,000  Level Gander Center
12:24PM 62.2500 -58.6833 237° Southwest 450 518 36,000  Level Gander Center
12:25PM 62.1833 -58.9333 240° Southwest 450 518 36,000  Level Gander Center
12:26PM 62.1333 -59.1500 244° Southwest 460 529 36,000  Level Gander Center
12:27PM 62.0500 -59.3667 231° Southwest 460 529 36,000  Level Gander Center
12:28PM 61.9833 -59.5833 237° Southwest 460 529 36,000  Level Gander Center
12:29PM 61.9333 -59.8000 244° Southwest 430 495 36,000  Level Gander Center
12:30PM 61.8500 -60.0500 235° Southwest 460 529 36,000  Level Gander Center
12:31PM 61.7667 -60.2667 231° Southwest 460 529 36,000  Level Gander Center
12:32PM 61.7167 -60.5167 247° West 460 529 36,000  Level Gander Center
12:33PM 61.6167 -60.7000 221° Southwest 460 529 36,000  Level Montreal Center
12:34PM 61.5500 -60.9500 241° Southwest 460 529 36,000  Level Montreal Center
12:35PM 61.4833 -61.1500 235° Southwest 460 529 36,000  Level Montreal Center
12:36PM 61.4333 -61.3833 246° West 460 529 36,000  Level Gander Center
12:37PM 61.3667 -61.6000 237° Southwest 460 529 36,000  Level Gander Center
12:38PM 61.2833 -61.8333 233° Southwest 460 529 36,000  Level Gander Center
12:39PM 61.2167 -62.0333 235° Southwest 460 529 36,000  Level Gander Center
12:40PM 61.1500 -62.2500 238° Southwest 460 529 36,000  Level Gander Center
12:41PM 61.0667 -62.4833 234° Southwest 470 541 36,000  Level Gander Center
12:42PM 60.9833 -62.6833 229° Southwest 460 529 36,000  Level Gander Center
12:43PM 60.9167 -62.9167 240° Southwest 500 575 36,000  Level Gander Center
12:44PM 60.8500 -63.1167 236° Southwest 470 541 36,000  Level Gander Center
12:45PM 60.7667 -63.3500 234° Southwest 460 529 36,000  Level Gander Center
12:46PM 60.7000 -63.5500 236° Southwest 460 529 36,000  Level Gander Center
12:47PM 60.6167 -63.7833 234° Southwest 460 529 36,000  Level Gander Center
12:48PM 60.5333 -63.9833 230° Southwest 460 529 36,000  Level Gander Center
12:49PM 60.4667 -64.1833 236° Southwest 460 529 36,000  Level Gander Center
12:50PM 60.3833 -64.4167 234° Southwest 460 529 36,000  Level Gander Center
12:51PM 60.3167 -64.6000 234° Southwest 460 529 36,000  Level Gander Center
12:52PM 60.2333 -64.8000 230° Southwest 460 529 36,000  Level Gander Center
12:53PM 60.1667 -65.0000 236° Southwest 460 529 36,000  Level Gander Center
12:54PM 60.0833 -65.1833 228° Southwest 460 529 36,000  Level Gander Center
12:55PM 59.9833 -65.3667 223° Southwest 450 518 36,000  Level Gander Center
12:56PM 59.8833 -65.5333 220° Southwest 450 518 36,000  Level Gander Center
12:57PM 59.8000 -65.6833 222° Southwest 450 518 36,000  Level Gander Center
12:58PM 59.7000 -65.8667 223° Southwest 450 518 36,000  Level Gander Center
12:59PM 59.6000 -66.0167 217° Southwest 450 518 36,000  Level Gander Center
01:00PM 59.5167 -66.2000 228° Southwest 450 518 36,000  Level Gander Center
01:01PM 59.4000 -66.3500 213° Southwest 460 529 36,000  Level Gander Center
01:02PM 59.3000 -66.5000 217° Southwest 450 518 36,000  Level Montreal Center
01:03PM 59.2000 -66.6500 218° Southwest 450 518 36,000  Level Montreal Center
01:04PM 59.1167 -66.8167 226° Southwest 450 518 36,000  Level Montreal Center
01:05PM 59.0000 -66.9667 214° Southwest 450 518 36,000  Level Montreal Center
01:06PM 58.9167 -67.1167 223° Southwest 450 518 36,000  Level Montreal Center
01:07PM 58.8333 -67.2667 223° Southwest 450 518 36,000  Level Gander Center
01:08PM 58.7500 -67.4500 229° Southwest 450 518 36,000  Level Gander Center
01:09PM 58.6500 -67.6000 218° Southwest 450 518 36,000  Level Gander Center
01:10PM 58.5500 -67.7333 215° Southwest 450 518 36,000  Level Gander Center
01:11PM 58.4500 -67.8833 218° Southwest 450 518 36,000  Level Gander Center
01:12PM 58.3500 -68.0500 221° Southwest 450 518 36,000  Level Gander Center
01:13PM 58.2500 -68.2000 218° Southwest 460 529 36,000  Level Gander Center
01:14PM 58.1667 -68.3667 227° Southwest 470 541 36,000  Level Gander Center
01:15PM 58.0667 -68.4500 204° Southwest 520 598 36,000  Level Montreal Center
01:16PM 57.9667 -68.5667 212° Southwest 460 529 36,000  Level Montreal Center
01:17PM 57.8667 -68.7167 219° Southwest 450 518 36,000  Level Montreal Center
01:18PM 57.7667 -68.8500 215° Southwest 450 518 36,000  Level Montreal Center
01:19PM 57.6667 -69.0000 219° Southwest 450 518 36,000  Level Montreal Center
01:20PM 57.5667 -69.1167 212° Southwest 450 518 36,000  Level Montreal Center
01:21PM 57.4500 -69.2667 215° Southwest 450 518 36,000  Level Montreal Center
01:22PM 57.3500 -69.4000 216° Southwest 450 518 36,000  Level Montreal Center
01:23PM 57.2500 -69.5500 219° Southwest 450 518 36,000  Level Montreal Center
01:24PM 57.1500 -69.6833 216° Southwest 450 518 36,000  Level Montreal Center
01:25PM 57.0500 -69.8000 212° Southwest 450 518 36,000  Level Montreal Center
01:26PM 56.9500 -69.9333 216° Southwest 450 518 36,000  Level Montreal Center
01:27PM 56.8333 -70.0833 215° Southwest 450 518 36,000  Level Montreal Center
01:28PM 56.7500 -70.1833 213° Southwest 450 518 36,000  Level Montreal Center
01:29PM 56.6500 -70.3333 220° Southwest 440 506 36,000  Level Montreal Center
01:30PM 56.5333 -70.4667 212° Southwest 450 518 36,000  Level Montreal Center
01:31PM 56.4333 -70.5667 209° Southwest 450 518 36,000  Level Montreal Center
01:32PM 56.3333 -70.7000 216° Southwest 450 518 36,000  Level Montreal Center
01:33PM 56.2333 -70.8500 220° Southwest 450 518 36,000  Level Montreal Center
01:34PM 56.1167 -70.9833 213° Southwest 450 518 36,000  Level Montreal Center
01:35PM 56.0167 -71.0833 209° Southwest 440 506 36,000  Level Montreal Center
01:36PM 55.9167 -71.2167 217° Southwest 450 518 36,000  Level Montreal Center
01:37PM 55.8167 -71.3500 217° Southwest 440 506 36,000  Level Montreal Center
01:38PM 55.7167 -71.4500 209° Southwest 450 518 36,000  Level Montreal Center
01:39PM 55.6000 -71.5833 213° Southwest 450 518 36,000  Level Montreal Center
01:40PM 55.5000 -71.7167 217° Southwest 450 518 36,000  Level Montreal Center
01:41PM 55.3833 -71.8333 210° Southwest 450 518 36,000  Level Montreal Center
01:42PM 55.3000 -71.9333 214° Southwest 450 518 36,000  Level Montreal Center
01:43PM 55.1833 -72.0667 213° Southwest 450 518 36,000  Level Montreal Center
01:44PM 55.0667 -72.2000 213° Southwest 450 518 36,000  Level Montreal Center
01:45PM 54.9667 -72.3167 214° Southwest 450 518 36,000  Level Montreal Center
01:46PM 54.8667 -72.4500 218° Southwest 450 518 36,000  Level Montreal Center
01:47PM 54.7500 -72.5500 206° Southwest 450 518 36,000  Level Montreal Center
01:48PM 54.6667 -72.6667 219° Southwest 450 518 36,000  Level Montreal Center
01:49PM 54.5500 -72.8000 214° Southwest 450 518 36,000  Level Montreal Center
01:50PM 54.4500 -72.9000 210° Southwest 450 518 36,000  Level Montreal Center
01:51PM 54.3333 -73.0167 210° Southwest 450 518 36,000  Level Montreal Center
01:52PM 54.2333 -73.1333 214° Southwest 450 518 36,000  Level Montreal Center
01:53PM 54.1167 -73.2667 214° Southwest 450 518 36,000  Level Montreal Center
01:54PM 54.0167 -73.3500 206° Southwest 450 518 36,000  Level Montreal Center
01:55PM 53.9167 -73.4833 218° Southwest 450 518 36,000  Level Montreal Center
01:56PM 53.8000 -73.6000 211° Southwest 450 518 36,000  Level Montreal Center
01:57PM 53.6833 -73.7167 211° Southwest 440 506 36,000  Level Montreal Center
01:58PM 53.5833 -73.8000 206° Southwest 440 506 36,000  Level Montreal Center
01:59PM 53.4667 -73.9000 207° Southwest 450 518 36,000  Level Montreal Center
02:00PM 53.3500 -73.9833 203° Southwest 450 518 36,000  Level Montreal Center
02:01PM 53.2333 -74.0833 207° Southwest 450 518 36,000  Level Montreal Center
02:02PM 53.1333 -74.1667 207° Southwest 450 518 36,000  Level Montreal Center
02:03PM 53.0167 -74.2500 203° Southwest 450 518 36,000  Level Montreal Center
02:04PM 52.9167 -74.3667 215° Southwest 450 518 36,000  Level Montreal Center
02:05PM 52.8167 -74.4667 211° Southwest 450 518 36,000  Level Montreal Center
02:06PM 52.7000 -74.5500 203° Southwest 440 506 36,000  Level Montreal Center
02:07PM 52.5833 -74.6333 203° Southwest 440 506 36,000  Level Montreal Center
02:08PM 52.4500 -74.7167 201° Southwest 440 506 36,000  Level Montreal Center
02:09PM 52.3500 -74.8000 207° Southwest 440 506 36,000  Level Montreal Center
02:10PM 52.2333 -74.9000 208° Southwest 430 495 36,000  Level Montreal Center
02:11PM 52.1167 -74.9833 204° Southwest 440 506 36,000  Level Montreal Center
02:12PM 52.0000 -75.0833 208° Southwest 460 529 36,000  Level Montreal Center
02:13PM 51.8833 -75.1667 204° Southwest 450 518 36,000  Level Montreal Center
02:14PM 51.7833 -75.2500 207° Southwest 440 506 36,000  Level Montreal Center
02:15PM 51.6667 -75.3333 204° Southwest 450 518 36,000  Level Montreal Center
02:16PM 51.5500 -75.4167 204° Southwest 450 518 36,000  Level Montreal Center
02:17PM 51.4333 -75.5000 204° Southwest 450 518 36,000  Level Montreal Center
02:18PM 51.3333 -75.6167 216° Southwest 450 518 36,000  Level Montreal Center
02:19PM 51.2167 -75.7000 204° Southwest 450 518 36,000  Level Montreal Center
02:20PM 51.1000 -75.7833 204° Southwest 450 518 36,000  Level Montreal Center
02:21PM 50.9833 -75.8500 200° South 450 518 36,000  Level Montreal Center
02:22PM 50.8667 -75.9333 204° Southwest 450 518 36,000  Level Montreal Center
02:23PM 50.7667 -76.0167 208° Southwest 450 518 36,000  Level Montreal Center
02:24PM 50.6500 -76.1000 204° Southwest 450 518 36,000  Level Montreal Center
02:25PM 50.5333 -76.2000 209° Southwest 450 518 36,000  Level Montreal Center
02:26PM 50.4167 -76.2833 204° Southwest 450 518 36,000  Level Montreal Center
02:27PM 50.3167 -76.3667 208° Southwest 450 518 36,000  Level Montreal Center
02:28PM 50.2000 -76.4333 200° South 450 518 36,000  Level Montreal Center
02:29PM 50.0667 -76.5167 202° Southwest 450 518 36,000  Level Montreal Center
02:30PM 49.9500 -76.6000 205° Southwest 450 518 36,000  Level Montreal Center
02:31PM 49.8500 -76.6667 203° Southwest 440 506 36,000  Level Montreal Center
02:32PM 49.7333 -76.7500 205° Southwest 440 506 36,000  Level Montreal Center
02:33PM 49.6167 -76.8500 209° Southwest 450 518 36,000  Level Montreal Center
02:34PM 49.5167 -76.9167 203° Southwest 430 495 36,000  Level Montreal Center
02:35PM 49.4000 -77.0000 205° Southwest 470 541 36,000  Level Montreal Center
02:36PM 49.2833 -77.0667 200° South 450 518 36,000  Level Montreal Center
02:37PM 49.1667 -77.1500 205° Southwest 430 495 36,000  Level Montreal Center
02:38PM 49.0667 -77.2167 204° Southwest 450 518 36,000  Level Montreal Center
02:39PM 48.9500 -77.3000 205° Southwest 440 506 36,000  Level Montreal Center
02:40PM 48.8167 -77.4000 206° Southwest 440 506 36,000  Level Montreal Center
02:41PM 48.7167 -77.4667 204° Southwest 440 506 36,000  Level Montreal Center
02:42PM 48.6000 -77.5500 205° Southwest 440 506 36,000  Level Montreal Center
02:43PM 48.5000 -77.6167 204° Southwest 440 506 36,000  Level Montreal Center
02:44PM 48.3833 -77.6833 201° Southwest 440 506 36,000  Level Montreal Center
02:45PM 48.2667 -77.7667 205° Southwest 440 506 36,000  Level Montreal Center
02:46PM 48.1667 -77.8333 204° Southwest 440 506 36,000  Level Montreal Center
02:47PM 48.0500 -77.9000 201° Southwest 440 506 36,000  Level Montreal Center
02:48PM 47.9167 -77.9667 199° South 440 506 36,000  Level Montreal Center
02:49PM 47.8000 -78.0500 206° Southwest 440 506 36,000  Level Montreal Center
02:50PM 47.6833 -78.1167 201° Southwest 440 506 36,000  Level Montreal Center
02:51PM 47.5667 -78.1833 201° Southwest 440 506 36,000  Level Montreal Center
02:52PM 47.4667 -78.2333 199° South 440 506 36,000  Level Montreal Center
02:53PM 47.3500 -78.3000 201° Southwest 440 506 36,000  Level Montreal Center
02:54PM 47.2333 -78.3667 201° Southwest 440 506 36,000  Level Montreal Center
02:55PM 47.1000 -78.4333 199° South 440 506 36,000  Level Montreal Center
02:56PM 47.0000 -78.5333 214° Southwest 440 506 36,000  Level Montreal Center
02:57PM 46.8833 -78.6000 201° Southwest 440 506 36,000  Level Montreal Center
02:58PM 46.8167 -78.6167 190° South 440 506 36,000  Level Toronto Center
02:59PM 46.7000 -78.7000 206° Southwest 440 506 36,000  Level Toronto Center
03:00PM 46.6000 -78.7833 210° Southwest 440 506 36,000  Level Toronto Center
03:01PM 46.4833 -78.8500 201° Southwest 440 506 36,000  Level Toronto Center
03:02PM 46.3667 -78.9333 206° Southwest 440 506 36,000  Level Toronto Center
03:03PM 46.2667 -79.0333 215° Southwest 440 506 36,000  Level Toronto Center
03:04PM 46.1500 -79.0833 197° South 430 495 36,000  Level Toronto Center
03:05PM 46.0333 -79.1833 211° Southwest 440 506 36,000  Level Toronto Center
03:06PM 45.9333 -79.2500 205° Southwest 440 506 36,000  Level Toronto Center
03:11PM 45.3153 -79.6873 206° Southwest 445 512 36,000  Level FlightAware ADS-B (CYYZ)
03:12PM 45.2476 -79.7327 206° Southwest 445 512 36,000  Level FlightAware ADS-B (CYYZ)
03:12PM 45.1840 -79.7754 206° Southwest 443 510 36,000  Level FlightAware ADS-B (CYYZ)
03:13PM 45.1273 -79.8132 206° Southwest 442 509 36,000  Level FlightAware ADS-B (CYYZ)
03:13PM 45.0709 -79.8508 206° Southwest 443 510 36,000  Level FlightAware ADS-B (CYYZ)
03:14PM 45.0153 -79.8878 206° Southwest 443 510 36,000  Level FlightAware ADS-B (CYYZ)
03:14PM 45.0745 -79.8484 205° Southwest 442 509 36,000  Level FlightAware ADS-B (CYKF)
03:14PM 44.9616 -79.9234 206° Southwest 444 511 36,000  Level FlightAware ADS-B (CYYZ)
03:15PM 44.9040 -79.9616 206° Southwest 444 511 36,000  Level FlightAware ADS-B (CYYZ)
03:15PM 44.8506 -79.9969 206° Southwest 443 510 36,000  Level FlightAware ADS-B (CYYZ)
03:16PM 44.7931 -80.0349 206° Southwest 443 510 36,000  Level FlightAware ADS-B (CYYZ)
03:16PM 44.8006 -80.0300 205° Southwest 442 509 36,000  Level FlightAware ADS-B (CYKF)
03:16PM 44.7387 -80.0708 206° Southwest 442 509 36,000  Level FlightAware ADS-B (CYYZ)
03:17PM 44.6824 -80.1079 206° Southwest 441 507 36,000  Level FlightAware ADS-B (CYYZ)
03:17PM 44.6753 -80.1125 205° Southwest 441 507 36,000  Level FlightAware ADS-B (CYKF)
03:17PM 44.6289 -80.1429 206° Southwest 440 506 36,000  Level FlightAware ADS-B (CYYZ)
03:18PM 44.5716 -80.1803 206° Southwest 439 505 36,000  Level FlightAware ADS-B (CYYZ)
03:18PM 44.5646 -80.1849 205° Southwest 438 504 36,000  Level FlightAware ADS-B (CYKF)
03:18PM 44.5168 -80.2161 206° Southwest 439 505 36,000  Level FlightAware ADS-B (CYYZ)
03:19PM 44.4616 -80.2521 205° Southwest 440 506 36,000  Level FlightAware ADS-B (CYYZ)
03:19PM 44.4068 -80.2878 206° Southwest 439 505 36,000  Level FlightAware ADS-B (CYYZ)
03:20PM 44.3528 -80.3228 206° Southwest 439 505 36,000  Level FlightAware ADS-B (CYYZ)
03:20PM 44.2980 -80.3583 205° Southwest 438 504 36,000  Level FlightAware ADS-B (CYYZ)
03:21PM 44.2414 -80.3949 205° Southwest 437 503 36,000  Level FlightAware ADS-B (CYYZ)
03:21PM 44.2367 -80.3979 205° Southwest 436 502 36,000  Level FlightAware ADS-B (CYKF)
03:21PM 44.1871 -80.4299 205° Southwest 437 503 36,000  Level FlightAware ADS-B (CYYZ)
03:22PM 44.1319 -80.4654 205° Southwest 438 504 36,000  Level FlightAware ADS-B (CYYZ)
03:22PM 44.1346 -80.4637 205° Southwest 438 504 36,000  Level FlightAware ADS-B (CYKF)
03:22PM 44.0783 -80.4999 205° Southwest 440 506 36,000  Level FlightAware ADS-B (CYYZ)
03:23PM 44.0233 -80.5351 205° Southwest 439 505 36,000  Level FlightAware ADS-B (CYYZ)
03:23PM 44.0237 -80.5349 205° Southwest 439 505 36,000  Level FlightAware ADS-B (CYKF)
03:23PM 43.9676 -80.5708 205° Southwest 439 505 36,000  Level FlightAware ADS-B (CYYZ)
03:24PM 43.9253 -80.5978 205° Southwest 438 504 36,000  Level FlightAware ADS-B (CYYZ)
03:24PM 43.9060 -80.6101 205° Southwest 437 503 36,000  Level FlightAware ADS-B (CYKF)
03:24PM 43.8971 -80.6158 205° Southwest 437 503 36,000  Level FlightAware ADS-B (CYYZ)
03:25PM 43.8138 -80.6687 205° Southwest 438 504 36,000  Level FlightAware ADS-B (CYYZ)
03:25PM 43.8012 -80.6767 205° Southwest 437 503 36,000  Level FlightAware ADS-B (CYKF)
03:25PM 43.7498 -80.7093 205° Southwest 438 504 36,000  Level FlightAware ADS-B (CYYZ)
03:26PM 43.6984 -80.7418 205° Southwest 440 506 36,000  Level FlightAware ADS-B (CYYZ)
03:26PM 43.6949 -80.7440 205° Southwest 439 505 36,000  Level FlightAware ADS-B (CYKF)
03:26PM 43.6610 -80.7654 205° Southwest 440 506 36,000  Level FlightAware ADS-B (CYYZ)
03:27PM 43.5807 -80.8161 205° Southwest 441 507 36,000  Level FlightAware ADS-B (CYYZ)
03:27PM 43.5248 -80.8513 205° Southwest 441 507 36,000  Level FlightAware ADS-B (CYYZ)
03:28PM 43.4692 -80.8862 205° Southwest 440 506 36,000  Level FlightAware ADS-B (CYYZ)
03:28PM 43.4621 -80.8907 205° Southwest 439 505 36,000  Level FlightAware ADS-B (CYKF)
03:28PM 43.4251 -80.9139 205° Southwest 438 504 36,000  Level FlightAware ADS-B (CYYZ)
03:29PM 43.3624 -80.9531 205° Southwest 437 503 36,000  Level FlightAware ADS-B (CYYZ)
03:29PM 43.3577 -80.9560 205° Southwest 436 502 36,000  Level FlightAware ADS-B (CYKF)
03:29PM 43.3111 -80.9851 205° Southwest 437 503 36,000  Level FlightAware ADS-B (CYYZ)
03:30PM 43.2490 -81.0238 205° Southwest 436 502 36,000  Level FlightAware ADS-B (CYYZ)
03:30PM 43.2427 -81.0277 204° Southwest 435 501 36,000  Level FlightAware ADS-B (CYKF)
03:30PM 43.1991 -81.0548 205° Southwest 436 502 36,000  Level FlightAware ADS-B (CYYZ)
03:31PM 43.1393 -81.0919 205° Southwest 436 502 36,000  Level FlightAware ADS-B (CYYZ)
03:31PM 43.1315 -81.0967 204° Southwest 435 501 36,000  Level FlightAware ADS-B (CYKF)
03:31PM 43.0845 -81.1258 205° Southwest 437 503 36,000  Level FlightAware ADS-B (CYYZ)
03:32PM 43.0293 -81.1600 205° Southwest 438 504 36,000  Level FlightAware ADS-B (CYYZ)
03:32PM 43.0261 -81.1620 204° Southwest 437 503 36,000  Level FlightAware ADS-B (CYKF)
03:32PM 42.9754 -81.1932 205° Southwest 439 505 36,000  Level FlightAware ADS-B (CYYZ)
03:33PM 42.9182 -81.2284 205° Southwest 441 507 36,000  Level FlightAware ADS-B (CYYZ)
03:33PM 42.9166 -81.2294 204° Southwest 440 506 36,000  Level FlightAware ADS-B (CYKF)
03:33PM 42.8650 -81.2610 205° Southwest 441 507 36,000  Level FlightAware ADS-B (CYYZ)
03:34PM 42.8074 -81.2965 205° Southwest 441 507 36,000  Level FlightAware ADS-B (CYYZ)
03:34PM 42.8093 -81.2952 204° Southwest 440 506 36,000  Level FlightAware ADS-B (CYKF)
03:34PM 42.7513 -81.3308 205° Southwest 440 506 36,000  Level FlightAware ADS-B (CYYZ)
03:35PM 42.6964 -81.3643 205° Southwest 439 505 36,000  Level FlightAware ADS-B (CYYZ)
03:35PM 42.6897 -81.3684 204° Southwest 438 504 36,000  Level FlightAware ADS-B (CYKF)
03:35PM 42.6489 -81.3933 205° Southwest 437 503 36,000  Level FlightAware ADS-B (CYYZ)
03:36PM 42.5854 -81.4319 205° Southwest 436 502 36,000  Level FlightAware ADS-B (CYYZ)
03:36PM 42.5307 -81.4652 205° Southwest 435 501 36,000  Level FlightAware ADS-B (CYYZ)
03:37PM 42.4765 -81.4980 205° Southwest 434 499 36,000  Level FlightAware ADS-B (CYYZ)
03:37PM 42.4211 -81.5315 205° Southwest 435 501 36,000  Level FlightAware ADS-B (CYYZ)
03:38PM 42.3668 -81.5642 204° Southwest 435 501 36,000  Level FlightAware ADS-B (CYYZ)
03:38PM 42.3109 -81.5978 205° Southwest 435 501 36,000  Level FlightAware ADS-B (CYYZ)
03:39PM 42.2571 -81.6301 205° Southwest 437 503 36,000  Level FlightAware ADS-B (CYYZ)
03:39PM 42.2006 -81.6641 205° Southwest 436 502 36,000  Level FlightAware ADS-B (CYYZ)
03:40PM 42.1463 -81.6967 205° Southwest 435 501 36,000  Level FlightAware ADS-B (CYYZ)
03:40PM 42.0910 -81.7297 204° Southwest 435 501 36,000  Level FlightAware ADS-B (CYYZ)
03:41PM 42.0374 -81.7617 204° Southwest 435 501 36,000  Level FlightAware ADS-B (CYYZ)
03:41PM 42.0019 -81.7829 204° Southwest 432 497 36,000  Level FlightAware ADS-B (ETSI / IGS)
03:41PM 41.9828 -81.7943 205° Southwest 433 498 36,000  Level FlightAware ADS-B (CYYZ)
03:42PM 41.9253 -81.8285 204° Southwest 432 497 36,000  Level FlightAware ADS-B (CYYZ)
03:42PM 41.8717 -81.8603 205° Southwest 432 497 36,000  Level FlightAware ADS-B (CYYZ)
03:43PM 41.8210 -81.8903 204° Southwest 433 498 36,000  Level FlightAware ADS-B (CYYZ)
03:43PM 41.7712 -81.9196 204° Southwest 433 498 36,000  Level FlightAware ADS-B (CYYZ)
03:44PM 41.7379 -81.9392 204° Southwest 433 498 36,000  Level FlightAware ADS-B (CYYZ)
03:45PM 41.6025 -82.0190 204° Southwest 435 501 36,000  Level FlightAware ADS-B (CYYZ)
03:46PM 41.4711 -82.0939 204° Southwest 436 502 36,000  Level Indianapolis Center
03:47PM 41.3881 -82.1442 204° Southwest 432 497 36,000  Level Cleveland Center
03:48PM 41.2481 -82.2000 197° South 437 503 36,000  Level Cleveland Center
03:49PM 41.1283 -82.2453 196° South 443 510 36,000  Level Cleveland Center
03:50PM 41.0053 -82.2886 195° South 443 510 36,000  Level Cleveland Center
03:51PM 40.8869 -82.3306 195° South 440 506 36,000  Level Cleveland Center
03:52PM 40.7692 -82.3719 195° South 440 506 36,000  Level Cleveland Center
03:53PM 40.6272 -82.4222 195° South 439 505 36,000  Level Indianapolis Center
03:54PM 40.5094 -82.4633 195° South 439 505 36,000  Level Indianapolis Center
03:55PM 40.3919 -82.5039 195° South 439 505 36,000  Level Indianapolis Center
03:57PM 40.2750 -82.5453 195° South 439 505 36,000  Level Indianapolis Center
03:58PM 40.1583 -82.5839 194° South 436 502 36,000  Level Indianapolis Center
03:59PM 40.0333 -82.5947 184° South 447 514 36,000  Level Indianapolis Center
04:00PM 39.8850 -82.6061 183° South 446 513 36,000  Level Indianapolis Center
04:01PM 39.7608 -82.6144 183° South 446 513 36,000  Level Indianapolis Center
04:02PM 39.6372 -82.6225 183° South 446 513 36,000  Level Indianapolis Center
04:03PM 39.5139 -82.6319 183° South 445 512 36,000  Level Indianapolis Center
04:08PM 38.8113 -82.6781 183° South 443 510 36,000  Level FlightAware ADS-B (KBRY)
04:09PM 38.7586 -82.6819 183° South 440 506 36,000  Level Indianapolis Center
04:10PM 38.6250 -82.6897 183° South 440 506 36,000  Level Indianapolis Center
04:11PM 38.5044 -82.6972 183° South 439 505 36,000  Level Indianapolis Center
04:12PM 38.3836 -82.7056 183° South 437 503 36,000  Level Indianapolis Center
04:13PM 38.2622 -82.7133 183° South 437 503 36,000  Level Indianapolis Center
04:14PM 38.1414 -82.7222 183° South 437 503 36,000  Level Indianapolis Center
04:15PM 38.0003 -82.7306 183° South 436 502 36,000  Level Indianapolis Center
04:16PM 37.8789 -82.7392 183° South 436 502 36,000  Level Indianapolis Center
04:17PM 37.7569 -82.7478 183° South 436 502 36,000  Level Indianapolis Center
04:18PM 37.6422 -82.7794 192° South 426 490 36,000  Level Indianapolis Center
04:19PM 37.5411 -82.8411 206° Southwest 407 468 36,000  Level Indianapolis Center
04:20PM 37.4264 -82.9178 208° Southwest 402 463 36,000  Level Indianapolis Center
04:21PM 37.3250 -82.9836 207° Southwest 404 465 36,000  Level Indianapolis Center
04:22PM 37.2256 -83.0492 208° Southwest 405 466 36,000  Level Indianapolis Center
04:23PM 37.1244 -83.1147 207° Southwest 407 468 36,000  Level Indianapolis Center
04:24PM 37.0250 -83.1794 207° Southwest 407 468 36,000  Level Indianapolis Center
04:25PM 36.9086 -83.2553 208° Southwest 407 468 36,000  Level Indianapolis Center
04:26PM 36.8089 -83.3189 207° Southwest 407 468 36,000  Level Indianapolis Center
04:28PM 36.7097 -83.3825 207° Southwest 406 467 36,000  Level Indianapolis Center
04:29PM 36.6106 -83.4458 207° Southwest 405 466 36,000  Level Indianapolis Center
04:30PM 36.5050 -83.5139 207° Southwest 405 466 36,000  Level Indianapolis Center
04:31PM 36.4069 -83.5775 208° Southwest 400 460 36,000  Level Indianapolis Center
04:32PM 36.3069 -83.6406 207° Southwest 400 460 36,000  Level Indianapolis Center
04:33PM 36.1878 -83.7161 207° Southwest 400 460 36,000  Level Indianapolis Center
04:34PM 36.0894 -83.7775 207° Southwest 400 460 36,000  Level Indianapolis Center
04:35PM 35.9908 -83.8406 207° Southwest 399 459 36,000  Level Indianapolis Center
04:36PM 35.8869 -83.8942 203° Southwest 400 460 36,000  Level Indianapolis Center
04:41PM 35.1882 -84.0682 191° South 426 490 36,000  Level FlightAware ADS-B (KDZJ)
04:42PM 35.1118 -84.0865 191° South 427 491 36,000  Level FlightAware ADS-B (KDZJ)
04:42PM 35.0366 -84.1047 191° South 430 495 36,000  Level FlightAware ADS-B (KDZJ)
04:43PM 34.9568 -84.1236 191° South 423 487 36,000  Level FlightAware ADS-B (KDZJ)
04:44PM 34.8751 -84.1429 191° South 430 495 36,000  Level FlightAware ADS-B (KDZJ)
04:44PM 34.8000 -84.1608 191° South 423 487 36,000  Level FlightAware ADS-B (KDZJ)
04:45PM 34.7312 -84.1771 191° South 428 493 36,000  Level FlightAware ADS-B (KDZJ)
04:46PM 34.6398 -84.1987 191° South 425 489 36,000  Level FlightAware ADS-B (KDZJ)
04:46PM 34.5699 -84.2153 191° South 425 489 36,000  Level FlightAware ADS-B (KDZJ)
04:47PM 34.4856 -84.2352 191° South 423 487 36,000  Level FlightAware ADS-B (KDZJ)
04:48PM 34.4106 -84.2528 191° South 423 487 36,000  Level FlightAware ADS-B (KDZJ)
04:48PM 34.3321 -84.2713 191° South 414 476 36,000  Level FlightAware ADS-B (KDZJ)
04:49PM 34.2554 -84.2894 191° South 423 487 36,000  Level FlightAware ADS-B (KDZJ)
04:50PM 34.1409 -84.3161 191° South 423 487 36,000  Level FlightAware ADS-B (KDZJ)
04:51PM 34.0625 -84.3345 191° South 425 489 36,000  Level FlightAware ADS-B (KDZJ)
04:51PM 33.9863 -84.3523 191° South 426 490 36,000  Level FlightAware ADS-B (KDZJ)
04:52PM 34.0067 -84.3494 191° South 441 507 36,000  Level Atlanta Center
04:53PM 33.8919 -84.3767 191° South 433 498 36,000  Level Atlanta Center
04:54PM 33.7792 -84.4036 191° South 427 491 36,000  Level Atlanta Center
04:55PM 33.6600 -84.4281 190° South 429 494 36,000  Level Atlanta Center
04:56PM 33.5472 -84.4375 184° South 437 503 36,000  Level Atlanta Center
04:57PM 33.4219 -84.4344 179° South 447 514 36,000  Level Atlanta Center
04:58PM 33.2989 -84.4339 180° South 457 526 36,000 -180 Level Atlanta Center
04:59PM 33.1717 -84.4308 179° South 457 526 35,700 -480 Descending Atlanta Center
05:00PM 33.0317 -84.4303 180° South 462 532 35,100 -360 Descending Atlanta Center
05:01PM 32.9064 -84.4272 179° South 454 522 35,000 -60 Descending Atlanta Center
05:02PM 32.8083 -84.4269 180° South 454 522 35,000  Level Atlanta Center
05:03PM 32.6728 -84.4189 177° South 454 522 35,000  Level Atlanta Center
05:04PM 32.5475 -84.4158 179° South 454 522 35,000  Level Atlanta Center
05:05PM 32.4244 -84.4128 179° South 454 522 35,000  Level Atlanta Center
05:07PM 32.1575 -84.4067 179° South 442 509 35,000  Level Jacksonville Center
05:08PM 32.0364 -84.4022 178° South 442 509 35,000  Level Jacksonville Center
05:09PM 31.9153 -84.4028 180° South 442 509 35,000  Level Jacksonville Center
05:15PM 31.2090 -84.2637 158° South 478 550 35,000  Level FlightAware ADS-B (KTLH)
05:16PM 30.9946 -84.1660 159° South 478 550 35,000  Level FlightAware ADS-B (KTLH)
05:17PM 30.9289 -84.1363 159° South 480 552 35,000  Level FlightAware ADS-B (KTLH)
05:18PM 30.8560 -84.1034 159° South 480 552 35,000  Level FlightAware ADS-B (KTLH)
05:18PM 30.7864 -84.0720 159° South 479 551 35,000  Level FlightAware ADS-B (KTLH)
05:19PM 30.6818 -84.0250 159° South 480 552 35,000  Level FlightAware ADS-B (KTLH)
05:19PM 30.6166 -83.9956 159° South 480 552 35,000  Level FlightAware ADS-B (KTLH)
05:20PM 30.5547 -83.9679 159° South 479 551 35,000  Level FlightAware ADS-B (KTLH)
05:20PM 30.5083 -83.9471 159° South 480 552 35,000  Level FlightAware ADS-B (KTLH)
05:21PM 30.4158 -83.9058 159° South 481 554 35,000  Level FlightAware ADS-B (KTLH)
05:22PM 30.3360 -83.8701 159° South 482 555 35,000  Level FlightAware ADS-B (KTLH)
05:22PM 30.2729 -83.8420 159° South 483 556 35,000  Level FlightAware ADS-B (KTLH)
05:23PM 30.1832 -83.8019 159° South 482 555 35,000  Level FlightAware ADS-B (KTLH)
05:24PM 30.1066 -83.7678 159° South 479 551 35,000  Level FlightAware ADS-B (KTLH)
05:24PM 30.0003 -83.7209 159° South 481 554 35,000  Level FlightAware ADS-B (KTLH)
05:25PM 29.9444 -83.7003 159° South 476 548 35,000  Level Jacksonville Center
05:26PM 29.8217 -83.6442 158° South 481 554 35,000  Level Jacksonville Center
05:27PM 29.6967 -83.5908 160° South 481 554 35,000  Level Jacksonville Center
05:28PM 29.5675 -83.5350 159° South 487 560 35,000  Level Jacksonville Center
05:29PM 29.4425 -83.4792 159° South 487 560 35,000  Level Jacksonville Center
05:30PM 29.3156 -83.4214 158° South 487 560 35,000  Level Jacksonville Center
05:31PM 29.1883 -83.3636 158° South 487 560 35,000  Level Jacksonville Center
05:32PM 29.0633 -83.3106 160° South 487 560 35,000  Level Jacksonville Center
05:33PM 28.9361 -83.2556 159° South 487 560 35,000  Level Jacksonville Center
05:34PM 28.8111 -83.2006 159° South 487 560 35,000  Level Jacksonville Center
05:35PM 28.6839 -83.1481 160° South 487 560 35,000  Level Jacksonville Center
05:36PM 28.5589 -83.0933 159° South 487 560 35,000  Level Jacksonville Center
05:43PM 27.6428 -82.7023 159° South 487 560 35,000  Level FlightAware ADS-B (KMCO)
05:44PM 27.5942 -82.6836 159° South 480 552 35,000  Level Miami Center
05:49PM 26.9079 -82.4044 178° South 448 516 35,000  Level FlightAware ADS-B (KMCO)
05:49PM 26.8417 -82.4072 183° South 441 507 35,000  Level FlightAware ADS-B (KMCO)
05:50PM 26.7797 -82.4096 182° South 446 513 35,000  Level FlightAware ADS-B (KMCO)
05:51PM 26.6794 -82.4136 182° South 447 514 35,000  Level FlightAware ADS-B (KMCO)
05:51PM 26.5933 -82.4172 182° South 447 514 35,000  Level FlightAware ADS-B (KMCO)
05:55PM 26.1777 -82.4338 182° South 453 521 35,000  Level FlightAware ADS-B (KMCO)
05:56PM 26.0713 -82.4381 182° South 455 524 35,000  Level FlightAware ADS-B (KMCO)
05:56PM 26.0070 -82.4406 182° South 454 522 35,000  Level FlightAware ADS-B (KMCO)
05:57PM 25.9434 -82.4429 182° South 450 518 35,000  Level FlightAware ADS-B (KMCO)
05:57PM 25.8581 -82.4463 182° South 449 517 35,000  Level FlightAware ADS-B (KMCO)
05:58PM 25.7515 -82.4506 182° South 450 518 35,000 -60 Level FlightAware ADS-B (KMCO)
05:59PM 25.5984 -82.4566 182° South 452 520 34,900 -540 Descending FlightAware ADS-B (KMCO)
06:01PM 25.4531 -82.4636 182° South 456 525 33,800 -1,020 Descending Miami Center
06:02PM 25.3278 -82.4692 182° South 463 533 32,800 -1,020 Descending Miami Center
06:03PM 25.2022 -82.4750 182° South 458 527 31,800 -1,020 Descending Miami Center
06:04PM 25.0789 -82.4783 181° South 453 521 30,800 -1,020 Descending Miami Center
06:05PM 24.9556 -82.4842 182° South 453 521 29,800 -960 Descending Miami Center
06:06PM 24.8322 -82.4900 182° South 453 521 28,900 -960 Descending Miami Center
06:07PM 24.7108 -82.4936 182° South 448 516 27,900 -1,020 Descending Miami Center
06:08PM 24.5917 -82.4997 183° South 442 509 26,900 -1,020 Descending Miami Center
06:09PM 24.4728 -82.5011 181° South 442 509 25,900 -1,020 Descending Miami Center
06:10PM 24.3533 -82.5072 183° South 442 509 24,900 -1,020 Descending Miami Center
06:11PM 24.2428 -82.5111 182° South 430 495 23,900 -960 Descending Miami Center
06:12PM 24.1319 -82.5153 182° South 416 479 23,000 -900 Descending Miami Center
06:13PM 24.0189 -82.5192 182° South 405 466 22,100 -1,380 Descending Miami Center
06:14PM 23.9058 -82.5300 185° South 405 466 20,300 -1,800 Descending Miami Center
06:16PM 23.6833 -82.4750 175° South  Level FlightAware Approximate
06:23PM 22.9891 -82.4091 180° South  Level Estimated
06:24PM 22.9891 -82.4091 180° South  Level Estimated
06:25PM 22.9891 -82.4091 180° South  Level Estimated
06:26PM 22.9891 -82.4091 180° South  Level Estimated
06:27PM 22.9891 -82.4091 180° South  Level Estimated
06:28PM 22.9891 -82.4091 180° South  Level Estimated
06:29PM 22.9891 -82.4091 180° South  Level Estimated
06:30PM 22.9891 -82.4091 180° South  Level Estimated
06:31PM 22.9891 -82.4091 180° South  Level Estimated
06:32PM 22.9891 -82.4091 180° South  Level Estimated
06:33PM 22.9891 -82.4091 180° South  Level Estimated
06:34PM 22.9891 -82.4091 180° South  Level Estimated
06:35PM 22.9891 -82.4091 180° South  Level Estimated
06:36PM 22.9891 -82.4091 180° South  Level Estimated
06:37PM 22.9891 -82.4091 180° South  Level Estimated
06:38PM 22.9891 -82.4091 180° South  Level Estimated
06:39PM 22.9891 -82.4091 180° South  Level Estimated
06:40PM 22.9891 -82.4091 180° South  Level Estimated
06:41PM 22.9891 -82.4091 180° South  Level Estimated
06:42PM 22.9891 -82.4091 180° South  Level Estimated
06:43PM 22.9891 -82.4091 180° South  Level Estimated